sensor_id;sensor_type;location;lat;lon;timestamp;P1;durP1;ratioP1;P2;durP2;ratioP2
41721;SDS011;27407;24.142;-110.310;2023-04-10T00:01:58;16.15;;;8.80;;
41721;SDS011;27407;24.142;-110.310;2023-04-10T00:04:25;8.30;;;3.45;;
41721;SDS011;27407;24.142;-110.310;2023-04-10T00:06:53;11.38;;;1.90;;
41721;SDS011;27407;24.142;-110.310;2023-04-10T00:09:21;20.80;;;2.28;;
41721;SDS011;27407;24.142;-110.310;2023-04-10T00:11:48;7.22;;;1.52;;
41721;SDS011;27407;24.142;-110.310;2023-04-10T00:14:15;15.00;;;1.40;;
41721;SDS011;27407;24.142;-110.310;2023-04-10T00:16:47;7.13;;;1.60;;
41721;SDS011;27407;24.142;-110.310;2023-04-10T00:19:15;7.30;;;1.50;;
41721;SDS011;27407;24.142;-110.310;2023-04-10T00:21:42;10.10;;;1.50;;
41721;SDS011;27407;24.142;-110.310;2023-04-10T00:24:09;6.30;;;1.73;;
41721;SDS011;27407;24.142;-110.310;2023-04-10T00:26:35;6.97;;;1.30;;
41721;SDS011;27407;24.142;-110.310;2023-04-10T00:29:02;14.90;;;1.92;;
41721;SDS011;27407;24.142;-110.310;2023-04-10T00:31:29;24.73;;;2.13;;
41721;SDS011;27407;24.142;-110.310;2023-04-10T00:33:56;7.40;;;1.73;;
41721;SDS011;27407;24.142;-110.310;2023-04-10T00:36:23;9.85;;;1.85;;
41721;SDS011;27407;24.142;-110.310;2023-04-10T00:38:51;6.90;;;2.00;;
41721;SDS011;27407;24.142;-110.310;2023-04-10T00:41:17;14.25;;;1.95;;
41721;SDS011;27407;24.142;-110.310;2023-04-10T00:43:44;7.45;;;1.50;;
41721;SDS011;27407;24.142;-110.310;2023-04-10T00:46:11;5.75;;;1.60;;
41721;SDS011;27407;24.142;-110.310;2023-04-10T00:48:38;8.13;;;1.58;;
41721;SDS011;27407;24.142;-110.310;2023-04-10T00:51:05;7.97;;;1.80;;
41721;SDS011;27407;24.142;-110.310;2023-04-10T00:53:32;9.98;;;1.48;;
41721;SDS011;27407;24.142;-110.310;2023-04-10T00:56:00;8.13;;;1.25;;
41721;SDS011;27407;24.142;-110.310;2023-04-10T00:58:27;9.70;;;1.98;;
41721;SDS011;27407;24.142;-110.310;2023-04-10T01:00:54;14.20;;;2.20;;
41721;SDS011;27407;24.142;-110.310;2023-04-10T01:03:21;7.38;;;1.95;;
41721;SDS011;27407;24.142;-110.310;2023-04-10T01:06:08;6.70;;;1.73;;
41721;SDS011;27407;24.142;-110.310;2023-04-10T01:14:31;10.55;;;1.25;;
41721;SDS011;27407;24.142;-110.310;2023-04-10T01:17:27;16.17;;;1.85;;
41721;SDS011;27407;24.142;-110.310;2023-04-10T01:20:09;22.77;;;2.20;;
41721;SDS011;27407;24.142;-110.310;2023-04-10T01:25:26;16.45;;;1.80;;
41721;SDS011;27407;24.142;-110.310;2023-04-10T01:30:46;22.13;;;2.10;;
41721;SDS011;27407;24.142;-110.310;2023-04-10T01:33:15;20.25;;;2.50;;
41721;SDS011;27407;24.142;-110.310;2023-04-10T01:35:46;7.70;;;2.05;;
41721;SDS011;27407;24.142;-110.310;2023-04-10T01:38:17;11.63;;;1.70;;
41721;SDS011;27407;24.142;-110.310;2023-04-10T01:40:45;20.65;;;1.85;;
41721;SDS011;27407;24.142;-110.310;2023-04-10T01:43:18;10.32;;;1.35;;
41721;SDS011;27407;24.142;-110.310;2023-04-10T01:45:47;14.82;;;1.88;;
41721;SDS011;27407;24.142;-110.310;2023-04-10T01:48:16;8.38;;;1.20;;
41721;SDS011;27407;24.142;-110.310;2023-04-10T01:50:43;12.05;;;1.92;;
41721;SDS011;27407;24.142;-110.310;2023-04-10T01:53:11;23.23;;;1.92;;
41721;SDS011;27407;24.142;-110.310;2023-04-10T01:55:39;23.20;;;2.53;;
41721;SDS011;27407;24.142;-110.310;2023-04-10T01:58:07;14.98;;;1.88;;
41721;SDS011;27407;24.142;-110.310;2023-04-10T02:00:36;16.88;;;2.30;;
41721;SDS011;27407;24.142;-110.310;2023-04-10T02:03:04;41.67;;;3.42;;
41721;SDS011;27407;24.142;-110.310;2023-04-10T02:05:33;22.58;;;2.45;;
41721;SDS011;27407;24.142;-110.310;2023-04-10T02:08:23;42.20;;;4.25;;
41721;SDS011;27407;24.142;-110.310;2023-04-10T02:11:15;112.40;;;6.93;;
41721;SDS011;27407;24.142;-110.310;2023-04-10T02:14:03;210.15;;;12.85;;
41721;SDS011;27407;24.142;-110.310;2023-04-10T02:16:35;159.00;;;12.05;;
41721;SDS011;27407;24.142;-110.310;2023-04-10T02:19:03;325.90;;;22.33;;
41721;SDS011;27407;24.142;-110.310;2023-04-10T02:21:32;88.60;;;7.30;;
41721;SDS011;27407;24.142;-110.310;2023-04-10T02:23:59;144.20;;;11.18;;
41721;SDS011;27407;24.142;-110.310;2023-04-10T02:26:26;107.97;;;9.27;;
41721;SDS011;27407;24.142;-110.310;2023-04-10T02:28:52;167.23;;;11.57;;
41721;SDS011;27407;24.142;-110.310;2023-04-10T02:31:19;102.70;;;8.82;;
41721;SDS011;27407;24.142;-110.310;2023-04-10T02:33:46;97.03;;;7.60;;
41721;SDS011;27407;24.142;-110.310;2023-04-10T02:36:13;40.15;;;4.30;;
41721;SDS011;27407;24.142;-110.310;2023-04-10T02:38:39;33.20;;;3.85;;
41721;SDS011;27407;24.142;-110.310;2023-04-10T02:41:06;119.80;;;12.02;;
41721;SDS011;27407;24.142;-110.310;2023-04-10T02:43:33;126.13;;;9.77;;
41721;SDS011;27407;24.142;-110.310;2023-04-10T02:45:59;84.93;;;8.68;;
41721;SDS011;27407;24.142;-110.310;2023-04-10T02:48:26;86.03;;;7.00;;
41721;SDS011;27407;24.142;-110.310;2023-04-10T02:50:56;159.30;;;12.95;;
41721;SDS011;27407;24.142;-110.310;2023-04-10T02:53:23;78.32;;;7.82;;
41721;SDS011;27407;24.142;-110.310;2023-04-10T02:55:51;66.32;;;7.68;;
41721;SDS011;27407;24.142;-110.310;2023-04-10T02:58:19;54.92;;;6.15;;
41721;SDS011;27407;24.142;-110.310;2023-04-10T03:00:48;240.95;;;18.35;;
41721;SDS011;27407;24.142;-110.310;2023-04-10T03:03:18;218.95;;;14.80;;
41721;SDS011;27407;24.142;-110.310;2023-04-10T03:05:45;177.10;;;14.73;;
41721;SDS011;27407;24.142;-110.310;2023-04-10T03:08:14;111.82;;;9.07;;
41721;SDS011;27407;24.142;-110.310;2023-04-10T03:10:44;123.43;;;9.65;;
41721;SDS011;27407;24.142;-110.310;2023-04-10T03:13:15;129.18;;;9.32;;
41721;SDS011;27407;24.142;-110.310;2023-04-10T03:15:42;124.82;;;9.38;;
41721;SDS011;27407;24.142;-110.310;2023-04-10T03:18:08;99.10;;;8.73;;
41721;SDS011;27407;24.142;-110.310;2023-04-10T03:20:35;76.68;;;7.28;;
41721;SDS011;27407;24.142;-110.310;2023-04-10T03:23:05;65.78;;;6.60;;
41721;SDS011;27407;24.142;-110.310;2023-04-10T03:25:35;67.05;;;6.40;;
41721;SDS011;27407;24.142;-110.310;2023-04-10T03:28:01;295.88;;;21.08;;
41721;SDS011;27407;24.142;-110.310;2023-04-10T03:30:28;212.88;;;16.15;;
41721;SDS011;27407;24.142;-110.310;2023-04-10T03:32:55;149.95;;;13.48;;
41721;SDS011;27407;24.142;-110.310;2023-04-10T03:35:22;130.23;;;11.93;;
41721;SDS011;27407;24.142;-110.310;2023-04-10T03:37:48;268.02;;;18.58;;
41721;SDS011;27407;24.142;-110.310;2023-04-10T03:40:15;175.27;;;15.52;;
41721;SDS011;27407;24.142;-110.310;2023-04-10T03:42:42;109.55;;;10.20;;
41721;SDS011;27407;24.142;-110.310;2023-04-10T03:45:09;102.10;;;9.10;;
41721;SDS011;27407;24.142;-110.310;2023-04-10T03:47:36;95.57;;;10.30;;
41721;SDS011;27407;24.142;-110.310;2023-04-10T03:50:02;130.73;;;13.20;;
41721;SDS011;27407;24.142;-110.310;2023-04-10T03:52:29;125.07;;;10.53;;
41721;SDS011;27407;24.142;-110.310;2023-04-10T03:54:58;194.52;;;14.13;;
41721;SDS011;27407;24.142;-110.310;2023-04-10T03:57:25;195.18;;;16.23;;
41721;SDS011;27407;24.142;-110.310;2023-04-10T03:59:52;398.73;;;30.30;;
41721;SDS011;27407;24.142;-110.310;2023-04-10T04:02:18;159.23;;;16.63;;
41721;SDS011;27407;24.142;-110.310;2023-04-10T04:04:46;117.32;;;14.93;;
41721;SDS011;27407;24.142;-110.310;2023-04-10T04:07:13;88.80;;;9.75;;
41721;SDS011;27407;24.142;-110.310;2023-04-10T04:09:39;86.23;;;9.63;;
41721;SDS011;27407;24.142;-110.310;2023-04-10T04:12:06;56.05;;;6.25;;
41721;SDS011;27407;24.142;-110.310;2023-04-10T04:14:33;73.40;;;8.93;;
41721;SDS011;27407;24.142;-110.310;2023-04-10T04:17:00;71.18;;;7.43;;
41721;SDS011;27407;24.142;-110.310;2023-04-10T04:19:26;80.40;;;7.20;;
41721;SDS011;27407;24.142;-110.310;2023-04-10T04:21:53;53.83;;;7.23;;
41721;SDS011;27407;24.142;-110.310;2023-04-10T04:24:19;50.27;;;5.73;;
41721;SDS011;27407;24.142;-110.310;2023-04-10T04:26:46;45.10;;;6.60;;
41721;SDS011;27407;24.142;-110.310;2023-04-10T04:29:13;56.47;;;6.17;;
41721;SDS011;27407;24.142;-110.310;2023-04-10T04:31:40;37.80;;;5.53;;
41721;SDS011;27407;24.142;-110.310;2023-04-10T04:34:06;40.40;;;6.17;;
41721;SDS011;27407;24.142;-110.310;2023-04-10T04:36:33;56.43;;;6.20;;
41721;SDS011;27407;24.142;-110.310;2023-04-10T04:38:59;81.60;;;7.93;;
41721;SDS011;27407;24.142;-110.310;2023-04-10T04:41:26;48.07;;;6.63;;
41721;SDS011;27407;24.142;-110.310;2023-04-10T04:44:00;49.00;;;6.70;;
41721;SDS011;27407;24.142;-110.310;2023-04-10T04:46:27;87.57;;;7.23;;
41721;SDS011;27407;24.142;-110.310;2023-04-10T04:48:54;62.83;;;6.73;;
41721;SDS011;27407;24.142;-110.310;2023-04-10T04:51:21;61.40;;;6.97;;
41721;SDS011;27407;24.142;-110.310;2023-04-10T04:53:47;68.40;;;7.83;;
41721;SDS011;27407;24.142;-110.310;2023-04-10T04:56:14;69.27;;;8.77;;
41721;SDS011;27407;24.142;-110.310;2023-04-10T04:58:41;62.33;;;6.37;;
41721;SDS011;27407;24.142;-110.310;2023-04-10T05:01:07;58.63;;;6.73;;
41721;SDS011;27407;24.142;-110.310;2023-04-10T05:03:34;35.83;;;5.03;;
41721;SDS011;27407;24.142;-110.310;2023-04-10T05:06:01;53.43;;;5.20;;
41721;SDS011;27407;24.142;-110.310;2023-04-10T05:08:28;44.37;;;4.80;;
41721;SDS011;27407;24.142;-110.310;2023-04-10T05:10:54;39.40;;;3.40;;
41721;SDS011;27407;24.142;-110.310;2023-04-10T05:13:21;31.07;;;3.07;;
41721;SDS011;27407;24.142;-110.310;2023-04-10T05:15:48;24.33;;;2.80;;
41721;SDS011;27407;24.142;-110.310;2023-04-10T05:18:15;26.40;;;3.30;;
41721;SDS011;27407;24.142;-110.310;2023-04-10T05:20:45;28.40;;;3.20;;
41721;SDS011;27407;24.142;-110.310;2023-04-10T05:23:12;33.27;;;3.53;;
41721;SDS011;27407;24.142;-110.310;2023-04-10T05:25:38;32.27;;;3.43;;
41721;SDS011;27407;24.142;-110.310;2023-04-10T05:28:05;32.20;;;3.50;;
41721;SDS011;27407;24.142;-110.310;2023-04-10T05:30:32;22.57;;;2.83;;
41721;SDS011;27407;24.142;-110.310;2023-04-10T05:32:59;28.43;;;2.97;;
41721;SDS011;27407;24.142;-110.310;2023-04-10T05:35:25;16.47;;;2.37;;
41721;SDS011;27407;24.142;-110.310;2023-04-10T05:37:52;14.87;;;1.87;;
41721;SDS011;27407;24.142;-110.310;2023-04-10T05:40:19;13.93;;;1.50;;
41721;SDS011;27407;24.142;-110.310;2023-04-10T05:42:46;18.37;;;2.17;;
41721;SDS011;27407;24.142;-110.310;2023-04-10T05:45:12;13.47;;;2.07;;
41721;SDS011;27407;24.142;-110.310;2023-04-10T05:47:46;7.50;;;1.53;;
41721;SDS011;27407;24.142;-110.310;2023-04-10T05:50:20;23.40;;;2.60;;
41721;SDS011;27407;24.142;-110.310;2023-04-10T05:52:47;29.43;;;2.87;;
41721;SDS011;27407;24.142;-110.310;2023-04-10T05:55:13;20.23;;;2.30;;
41721;SDS011;27407;24.142;-110.310;2023-04-10T05:57:40;16.20;;;2.20;;
41721;SDS011;27407;24.142;-110.310;2023-04-10T06:00:07;17.13;;;1.80;;
41721;SDS011;27407;24.142;-110.310;2023-04-10T06:02:34;14.90;;;1.50;;
41721;SDS011;27407;24.142;-110.310;2023-04-10T06:05:00;10.53;;;1.43;;
41721;SDS011;27407;24.142;-110.310;2023-04-10T06:07:27;8.17;;;1.30;;
41721;SDS011;27407;24.142;-110.310;2023-04-10T06:09:54;6.63;;;1.13;;
41721;SDS011;27407;24.142;-110.310;2023-04-10T06:12:20;8.20;;;1.20;;
41721;SDS011;27407;24.142;-110.310;2023-04-10T06:14:47;4.93;;;0.87;;
41721;SDS011;27407;24.142;-110.310;2023-04-10T06:17:14;18.23;;;1.40;;
41721;SDS011;27407;24.142;-110.310;2023-04-10T06:19:40;9.77;;;1.07;;
41721;SDS011;27407;24.142;-110.310;2023-04-10T06:22:07;5.60;;;1.20;;
41721;SDS011;27407;24.142;-110.310;2023-04-10T06:24:34;6.47;;;0.90;;
41721;SDS011;27407;24.142;-110.310;2023-04-10T06:27:01;9.13;;;1.17;;
41721;SDS011;27407;24.142;-110.310;2023-04-10T06:29:27;7.97;;;1.13;;
41721;SDS011;27407;24.142;-110.310;2023-04-10T06:31:54;8.97;;;1.00;;
41721;SDS011;27407;24.142;-110.310;2023-04-10T06:34:21;8.03;;;1.40;;
41721;SDS011;27407;24.142;-110.310;2023-04-10T06:36:47;16.70;;;1.67;;
41721;SDS011;27407;24.142;-110.310;2023-04-10T06:39:14;21.40;;;2.03;;
41721;SDS011;27407;24.142;-110.310;2023-04-10T06:41:40;9.73;;;1.97;;
41721;SDS011;27407;24.142;-110.310;2023-04-10T06:44:07;16.57;;;2.50;;
41721;SDS011;27407;24.142;-110.310;2023-04-10T06:46:34;18.17;;;2.47;;
41721;SDS011;27407;24.142;-110.310;2023-04-10T06:49:01;18.37;;;2.20;;
41721;SDS011;27407;24.142;-110.310;2023-04-10T06:51:27;11.70;;;2.37;;
41721;SDS011;27407;24.142;-110.310;2023-04-10T06:53:54;25.47;;;2.73;;
41721;SDS011;27407;24.142;-110.310;2023-04-10T06:56:21;5.93;;;1.37;;
41721;SDS011;27407;24.142;-110.310;2023-04-10T06:58:47;13.50;;;1.60;;
41721;SDS011;27407;24.142;-110.310;2023-04-10T07:01:14;9.43;;;1.43;;
41721;SDS011;27407;24.142;-110.310;2023-04-10T07:03:41;14.27;;;1.70;;
41721;SDS011;27407;24.142;-110.310;2023-04-10T07:06:09;18.67;;;2.73;;
41721;SDS011;27407;24.142;-110.310;2023-04-10T07:08:36;18.87;;;2.60;;
41721;SDS011;27407;24.142;-110.310;2023-04-10T07:11:03;28.07;;;2.30;;
41721;SDS011;27407;24.142;-110.310;2023-04-10T07:13:30;43.30;;;4.20;;
41721;SDS011;27407;24.142;-110.310;2023-04-10T07:15:57;22.63;;;2.23;;
41721;SDS011;27407;24.142;-110.310;2023-04-10T07:18:23;27.13;;;2.60;;
41721;SDS011;27407;24.142;-110.310;2023-04-10T07:20:50;8.97;;;1.63;;
41721;SDS011;27407;24.142;-110.310;2023-04-10T07:23:18;29.17;;;1.60;;
41721;SDS011;27407;24.142;-110.310;2023-04-10T07:25:45;20.53;;;1.23;;
41721;SDS011;27407;24.142;-110.310;2023-04-10T07:28:12;6.70;;;1.10;;
41721;SDS011;27407;24.142;-110.310;2023-04-10T07:30:38;7.13;;;1.20;;
41721;SDS011;27407;24.142;-110.310;2023-04-10T07:33:05;19.43;;;1.50;;
41721;SDS011;27407;24.142;-110.310;2023-04-10T07:35:32;9.27;;;1.40;;
41721;SDS011;27407;24.142;-110.310;2023-04-10T07:37:58;25.63;;;1.83;;
41721;SDS011;27407;24.142;-110.310;2023-04-10T07:40:25;17.23;;;1.73;;
41721;SDS011;27407;24.142;-110.310;2023-04-10T07:42:52;35.20;;;2.87;;
41721;SDS011;27407;24.142;-110.310;2023-04-10T07:45:19;16.37;;;2.23;;
41721;SDS011;27407;24.142;-110.310;2023-04-10T07:47:45;14.40;;;1.70;;
41721;SDS011;27407;24.142;-110.310;2023-04-10T07:50:12;13.10;;;1.53;;
41721;SDS011;27407;24.142;-110.310;2023-04-10T07:52:39;17.97;;;2.13;;
41721;SDS011;27407;24.142;-110.310;2023-04-10T07:55:05;20.90;;;2.10;;
41721;SDS011;27407;24.142;-110.310;2023-04-10T07:57:32;10.77;;;1.73;;
41721;SDS011;27407;24.142;-110.310;2023-04-10T07:59:59;10.57;;;1.50;;
41721;SDS011;27407;24.142;-110.310;2023-04-10T08:02:25;28.10;;;3.50;;
41721;SDS011;27407;24.142;-110.310;2023-04-10T08:04:52;20.70;;;2.00;;
41721;SDS011;27407;24.142;-110.310;2023-04-10T08:07:19;25.37;;;1.90;;
41721;SDS011;27407;24.142;-110.310;2023-04-10T08:09:49;8.73;;;1.80;;
41721;SDS011;27407;24.142;-110.310;2023-04-10T08:12:16;24.40;;;2.23;;
41721;SDS011;27407;24.142;-110.310;2023-04-10T08:14:42;29.50;;;3.87;;
41721;SDS011;27407;24.142;-110.310;2023-04-10T08:17:09;15.07;;;1.90;;
41721;SDS011;27407;24.142;-110.310;2023-04-10T08:19:41;6.90;;;1.23;;
41721;SDS011;27407;24.142;-110.310;2023-04-10T08:22:08;9.77;;;1.47;;
41721;SDS011;27407;24.142;-110.310;2023-04-10T08:24:35;7.27;;;1.70;;
41721;SDS011;27407;24.142;-110.310;2023-04-10T08:27:01;9.90;;;1.43;;
41721;SDS011;27407;24.142;-110.310;2023-04-10T08:29:28;6.17;;;1.10;;
41721;SDS011;27407;24.142;-110.310;2023-04-10T08:31:55;11.97;;;1.40;;
41721;SDS011;27407;24.142;-110.310;2023-04-10T08:34:24;5.97;;;0.90;;
41721;SDS011;27407;24.142;-110.310;2023-04-10T08:36:51;4.47;;;1.17;;
41721;SDS011;27407;24.142;-110.310;2023-04-10T08:39:18;7.03;;;0.97;;
41721;SDS011;27407;24.142;-110.310;2023-04-10T08:41:44;10.93;;;1.13;;
41721;SDS011;27407;24.142;-110.310;2023-04-10T08:44:11;4.70;;;1.00;;
41721;SDS011;27407;24.142;-110.310;2023-04-10T08:46:40;13.13;;;1.93;;
41721;SDS011;27407;24.142;-110.310;2023-04-10T08:49:14;9.27;;;1.50;;
41721;SDS011;27407;24.142;-110.310;2023-04-10T08:51:50;1.63;;;0.63;;
41721;SDS011;27407;24.142;-110.310;2023-04-10T08:54:24;3.60;;;0.90;;
41721;SDS011;27407;24.142;-110.310;2023-04-10T08:56:56;3.50;;;1.00;;
41721;SDS011;27407;24.142;-110.310;2023-04-10T08:59:28;9.67;;;1.20;;
41721;SDS011;27407;24.142;-110.310;2023-04-10T09:01:56;13.03;;;1.50;;
41721;SDS011;27407;24.142;-110.310;2023-04-10T09:04:24;25.03;;;2.03;;
41721;SDS011;27407;24.142;-110.310;2023-04-10T09:06:51;16.27;;;1.53;;
41721;SDS011;27407;24.142;-110.310;2023-04-10T09:09:18;39.63;;;3.03;;
41721;SDS011;27407;24.142;-110.310;2023-04-10T09:14:20;31.57;;;3.47;;
41721;SDS011;27407;24.142;-110.310;2023-04-10T09:16:51;40.27;;;3.13;;
41721;SDS011;27407;24.142;-110.310;2023-04-10T09:19:29;30.60;;;2.73;;
41721;SDS011;27407;24.142;-110.310;2023-04-10T09:21:57;26.60;;;3.23;;
41721;SDS011;27407;24.142;-110.310;2023-04-10T09:24:24;20.83;;;2.63;;
41721;SDS011;27407;24.142;-110.310;2023-04-10T09:26:52;25.60;;;3.07;;
41721;SDS011;27407;24.142;-110.310;2023-04-10T09:29:19;48.73;;;3.80;;
41721;SDS011;27407;24.142;-110.310;2023-04-10T09:31:45;43.60;;;4.87;;
41721;SDS011;27407;24.142;-110.310;2023-04-10T09:34:18;37.87;;;3.10;;
41721;SDS011;27407;24.142;-110.310;2023-04-10T09:36:56;38.23;;;3.90;;
41721;SDS011;27407;24.142;-110.310;2023-04-10T09:39:34;37.77;;;3.67;;
41721;SDS011;27407;24.142;-110.310;2023-04-10T09:42:07;24.13;;;3.53;;
41721;SDS011;27407;24.142;-110.310;2023-04-10T09:44:36;26.23;;;3.50;;
41721;SDS011;27407;24.142;-110.310;2023-04-10T09:49:44;27.53;;;3.43;;
41721;SDS011;27407;24.142;-110.310;2023-04-10T09:52:24;33.20;;;4.30;;
41721;SDS011;27407;24.142;-110.310;2023-04-10T09:54:54;41.60;;;4.17;;
41721;SDS011;27407;24.142;-110.310;2023-04-10T09:57:27;29.90;;;3.23;;
41721;SDS011;27407;24.142;-110.310;2023-04-10T09:59:56;33.30;;;3.10;;
41721;SDS011;27407;24.142;-110.310;2023-04-10T10:02:27;16.47;;;2.80;;
41721;SDS011;27407;24.142;-110.310;2023-04-10T10:04:56;28.93;;;2.77;;
41721;SDS011;27407;24.142;-110.310;2023-04-10T10:07:26;28.77;;;2.60;;
41721;SDS011;27407;24.142;-110.310;2023-04-10T10:09:54;26.33;;;3.07;;
41721;SDS011;27407;24.142;-110.310;2023-04-10T10:14:58;24.70;;;2.63;;
41721;SDS011;27407;24.142;-110.310;2023-04-10T10:17:36;18.67;;;2.20;;
41721;SDS011;27407;24.142;-110.310;2023-04-10T10:20:08;18.27;;;2.30;;
41721;SDS011;27407;24.142;-110.310;2023-04-10T10:22:36;27.93;;;1.87;;
41721;SDS011;27407;24.142;-110.310;2023-04-10T10:25:03;15.90;;;2.03;;
41721;SDS011;27407;24.142;-110.310;2023-04-10T10:27:32;17.53;;;2.50;;
41721;SDS011;27407;24.142;-110.310;2023-04-10T10:30:03;13.67;;;1.73;;
41721;SDS011;27407;24.142;-110.310;2023-04-10T10:32:33;21.80;;;1.83;;
41721;SDS011;27407;24.142;-110.310;2023-04-10T10:35:02;11.63;;;1.57;;
41721;SDS011;27407;24.142;-110.310;2023-04-10T10:37:33;13.03;;;1.60;;
41721;SDS011;27407;24.142;-110.310;2023-04-10T10:45:32;14.17;;;1.60;;
41721;SDS011;27407;24.142;-110.310;2023-04-10T10:48:05;16.73;;;2.20;;
41721;SDS011;27407;24.142;-110.310;2023-04-10T10:50:53;14.20;;;1.83;;
41721;SDS011;27407;24.142;-110.310;2023-04-10T10:56:39;16.00;;;1.83;;
41721;SDS011;27407;24.142;-110.310;2023-04-10T10:58:59;7.40;;;1.70;;
41721;SDS011;27407;24.142;-110.310;2023-04-10T11:01:26;7.23;;;1.77;;
41721;SDS011;27407;24.142;-110.310;2023-04-10T11:03:53;7.30;;;1.33;;
41721;SDS011;27407;24.142;-110.310;2023-04-10T11:06:20;11.63;;;1.53;;
41721;SDS011;27407;24.142;-110.310;2023-04-10T11:09:07;14.50;;;1.70;;
41721;SDS011;27407;24.142;-110.310;2023-04-10T11:11:36;25.53;;;2.50;;
41721;SDS011;27407;24.142;-110.310;2023-04-10T11:14:25;11.53;;;2.53;;
41721;SDS011;27407;24.142;-110.310;2023-04-10T11:16:54;18.40;;;2.80;;
41721;SDS011;27407;24.142;-110.310;2023-04-10T11:19:20;21.37;;;2.63;;
41721;SDS011;27407;24.142;-110.310;2023-04-10T11:22:02;15.33;;;2.33;;
41721;SDS011;27407;24.142;-110.310;2023-04-10T11:27:37;15.27;;;1.90;;
41721;SDS011;27407;24.142;-110.310;2023-04-10T11:30:24;13.53;;;1.70;;
41721;SDS011;27407;24.142;-110.310;2023-04-10T11:32:55;11.53;;;1.90;;
41721;SDS011;27407;24.142;-110.310;2023-04-10T11:35:22;7.33;;;1.47;;
41721;SDS011;27407;24.142;-110.310;2023-04-10T11:37:49;10.60;;;2.43;;
41721;SDS011;27407;24.142;-110.310;2023-04-10T11:40:16;7.03;;;1.20;;
41721;SDS011;27407;24.142;-110.310;2023-04-10T11:42:42;9.00;;;1.60;;
41721;SDS011;27407;24.142;-110.310;2023-04-10T11:45:25;8.67;;;1.30;;
41721;SDS011;27407;24.142;-110.310;2023-04-10T11:47:53;17.33;;;1.70;;
41721;SDS011;27407;24.142;-110.310;2023-04-10T11:50:20;16.67;;;2.00;;
41721;SDS011;27407;24.142;-110.310;2023-04-10T11:52:49;18.53;;;2.00;;
41721;SDS011;27407;24.142;-110.310;2023-04-10T11:55:16;4.30;;;1.37;;
41721;SDS011;27407;24.142;-110.310;2023-04-10T11:57:44;15.37;;;1.87;;
41721;SDS011;27407;24.142;-110.310;2023-04-10T12:00:10;19.53;;;2.13;;
41721;SDS011;27407;24.142;-110.310;2023-04-10T12:02:51;15.10;;;1.67;;
41721;SDS011;27407;24.142;-110.310;2023-04-10T12:05:18;12.93;;;1.43;;
41721;SDS011;27407;24.142;-110.310;2023-04-10T12:07:45;16.90;;;1.30;;
41721;SDS011;27407;24.142;-110.310;2023-04-10T12:10:11;19.33;;;2.00;;
41721;SDS011;27407;24.142;-110.310;2023-04-10T12:12:38;13.00;;;2.07;;
41721;SDS011;27407;24.142;-110.310;2023-04-10T12:15:27;18.13;;;2.53;;
41721;SDS011;27407;24.142;-110.310;2023-04-10T12:17:55;18.33;;;2.30;;
41721;SDS011;27407;24.142;-110.310;2023-04-10T12:20:23;38.27;;;4.17;;
41721;SDS011;27407;24.142;-110.310;2023-04-10T12:22:53;40.20;;;3.13;;
41721;SDS011;27407;24.142;-110.310;2023-04-10T12:25:21;22.47;;;2.83;;
41721;SDS011;27407;24.142;-110.310;2023-04-10T12:27:48;21.17;;;2.00;;
41721;SDS011;27407;24.142;-110.310;2023-04-10T12:30:15;24.03;;;2.40;;
41721;SDS011;27407;24.142;-110.310;2023-04-10T12:32:49;16.07;;;1.63;;
41721;SDS011;27407;24.142;-110.310;2023-04-10T12:35:19;10.87;;;1.73;;
41721;SDS011;27407;24.142;-110.310;2023-04-10T12:37:49;10.10;;;1.47;;
41721;SDS011;27407;24.142;-110.310;2023-04-10T12:40:17;5.70;;;1.53;;
41721;SDS011;27407;24.142;-110.310;2023-04-10T12:42:45;15.73;;;1.67;;
41721;SDS011;27407;24.142;-110.310;2023-04-10T12:45:11;12.40;;;2.00;;
41721;SDS011;27407;24.142;-110.310;2023-04-10T12:47:42;17.40;;;2.10;;
41721;SDS011;27407;24.142;-110.310;2023-04-10T12:50:17;11.83;;;2.07;;
41721;SDS011;27407;24.142;-110.310;2023-04-10T12:53:00;39.47;;;3.30;;
41721;SDS011;27407;24.142;-110.310;2023-04-10T12:55:34;38.20;;;4.23;;
41721;SDS011;27407;24.142;-110.310;2023-04-10T12:58:14;32.07;;;3.87;;
41721;SDS011;27407;24.142;-110.310;2023-04-10T13:00:42;19.20;;;2.93;;
41721;SDS011;27407;24.142;-110.310;2023-04-10T13:03:09;47.63;;;3.93;;
41721;SDS011;27407;24.142;-110.310;2023-04-10T13:05:36;42.93;;;4.03;;
41721;SDS011;27407;24.142;-110.310;2023-04-10T13:08:03;48.87;;;4.50;;
41721;SDS011;27407;24.142;-110.310;2023-04-10T13:10:30;49.97;;;5.00;;
41721;SDS011;27407;24.142;-110.310;2023-04-10T13:12:56;42.10;;;4.63;;
41721;SDS011;27407;24.142;-110.310;2023-04-10T13:15:23;48.67;;;4.87;;
41721;SDS011;27407;24.142;-110.310;2023-04-10T13:17:50;37.83;;;4.00;;
41721;SDS011;27407;24.142;-110.310;2023-04-10T13:20:16;75.93;;;4.90;;
41721;SDS011;27407;24.142;-110.310;2023-04-10T13:22:43;75.47;;;8.30;;
41721;SDS011;27407;24.142;-110.310;2023-04-10T13:25:10;380.77;;;27.60;;
41721;SDS011;27407;24.142;-110.310;2023-04-10T13:27:36;154.47;;;13.07;;
41721;SDS011;27407;24.142;-110.310;2023-04-10T13:30:03;179.53;;;13.80;;
41721;SDS011;27407;24.142;-110.310;2023-04-10T13:32:30;157.33;;;12.90;;
41721;SDS011;27407;24.142;-110.310;2023-04-10T13:34:57;100.97;;;9.03;;
41721;SDS011;27407;24.142;-110.310;2023-04-10T13:37:24;85.07;;;7.77;;
41721;SDS011;27407;24.142;-110.310;2023-04-10T13:39:51;255.63;;;20.50;;
41721;SDS011;27407;24.142;-110.310;2023-04-10T13:42:17;106.73;;;9.10;;
41721;SDS011;27407;24.142;-110.310;2023-04-10T13:44:44;76.60;;;10.10;;
41721;SDS011;27407;24.142;-110.310;2023-04-10T13:47:11;162.77;;;13.83;;
41721;SDS011;27407;24.142;-110.310;2023-04-10T13:49:37;108.00;;;9.70;;
41721;SDS011;27407;24.142;-110.310;2023-04-10T13:52:04;73.33;;;8.17;;
41721;SDS011;27407;24.142;-110.310;2023-04-10T13:54:31;88.70;;;7.93;;
41721;SDS011;27407;24.142;-110.310;2023-04-10T13:56:57;109.93;;;11.67;;
41721;SDS011;27407;24.142;-110.310;2023-04-10T13:59:24;117.27;;;22.70;;
41721;SDS011;27407;24.142;-110.310;2023-04-10T14:01:51;115.47;;;28.70;;
41721;SDS011;27407;24.142;-110.310;2023-04-10T14:04:18;145.10;;;32.07;;
41721;SDS011;27407;24.142;-110.310;2023-04-10T14:06:45;149.90;;;17.07;;
41721;SDS011;27407;24.142;-110.310;2023-04-10T14:09:12;231.07;;;16.57;;
41721;SDS011;27407;24.142;-110.310;2023-04-10T14:11:38;121.53;;;9.77;;
41721;SDS011;27407;24.142;-110.310;2023-04-10T14:14:05;105.50;;;10.13;;
41721;SDS011;27407;24.142;-110.310;2023-04-10T14:16:32;141.37;;;12.17;;
41721;SDS011;27407;24.142;-110.310;2023-04-10T14:18:58;93.80;;;8.90;;
41721;SDS011;27407;24.142;-110.310;2023-04-10T14:21:25;89.03;;;11.00;;
41721;SDS011;27407;24.142;-110.310;2023-04-10T14:23:52;89.10;;;11.40;;
41721;SDS011;27407;24.142;-110.310;2023-04-10T14:26:18;58.40;;;7.30;;
41721;SDS011;27407;24.142;-110.310;2023-04-10T14:28:45;61.80;;;5.77;;
41721;SDS011;27407;24.142;-110.310;2023-04-10T14:31:12;264.77;;;16.50;;
41721;SDS011;27407;24.142;-110.310;2023-04-10T14:33:39;54.30;;;4.43;;
41721;SDS011;27407;24.142;-110.310;2023-04-10T14:36:05;42.33;;;4.27;;